sensor_id;sensor_type;location;lat;lon;timestamp;pressure;altitude;pressure_sealevel;temperature;humidity
73671;BME280;61968;48.178;11.566;2023-06-22T00:02:00;95847.25;;;23.20;36.80
73671;BME280;61968;48.178;11.566;2023-06-22T00:04:27;95852.66;;;23.20;36.77
73671;BME280;61968;48.178;11.566;2023-06-22T00:06:54;95840.44;;;23.23;36.91
73671;BME280;61968;48.178;11.566;2023-06-22T00:09:20;95838.31;;;23.20;37.07
73671;BME280;61968;48.178;11.566;2023-06-22T00:11:48;95852.19;;;23.04;37.38
73671;BME280;61968;48.178;11.566;2023-06-22T00:14:16;95840.16;;;23.02;36.93
73671;BME280;61968;48.178;11.566;2023-06-22T00:16:42;95837.91;;;23.04;37.01
73671;BME280;61968;48.178;11.566;2023-06-22T00:19:09;95842.63;;;22.98;37.00
73671;BME280;61968;48.178;11.566;2023-06-22T00:21:36;95851.53;;;22.99;37.28
73671;BME280;61968;48.178;11.566;2023-06-22T00:24:04;95839.81;;;23.03;37.20
73671;BME280;61968;48.178;11.566;2023-06-22T00:26:31;95836.69;;;23.10;36.56
73671;BME280;61968;48.178;11.566;2023-06-22T00:28:58;95834.44;;;23.03;37.02
73671;BME280;61968;48.178;11.566;2023-06-22T00:31:25;95830.28;;;22.97;36.81
73671;BME280;61968;48.178;11.566;2023-06-22T00:33:52;95835.47;;;22.94;36.73
73671;BME280;61968;48.178;11.566;2023-06-22T00:36:19;95840.94;;;23.02;36.73
73671;BME280;61968;48.178;11.566;2023-06-22T00:38:45;95840.25;;;22.97;37.23
73671;BME280;61968;48.178;11.566;2023-06-22T00:41:12;95835.84;;;23.01;36.60
73671;BME280;61968;48.178;11.566;2023-06-22T00:43:38;95839.59;;;22.91;37.08
73671;BME280;61968;48.178;11.566;2023-06-22T00:46:06;95834.88;;;22.97;36.61
73671;BME280;61968;48.178;11.566;2023-06-22T00:48:33;95847.91;;;23.03;36.29
73671;BME280;61968;48.178;11.566;2023-06-22T00:51:02;95847.63;;;23.05;36.57
73671;BME280;61968;48.178;11.566;2023-06-22T00:53:29;95841.91;;;23.06;36.66
73671;BME280;61968;48.178;11.566;2023-06-22T00:55:58;95833.47;;;22.99;36.30
73671;BME280;61968;48.178;11.566;2023-06-22T00:58:25;95833.47;;;22.99;36.63
73671;BME280;61968;48.178;11.566;2023-06-22T01:00:51;95839.59;;;22.91;36.40
73671;BME280;61968;48.178;11.566;2023-06-22T01:03:18;95839.69;;;22.86;37.19
73671;BME280;61968;48.178;11.566;2023-06-22T01:05:48;95834.47;;;22.81;37.05
73671;BME280;61968;48.178;11.566;2023-06-22T01:08:25;95827.69;;;22.92;36.59
73671;BME280;61968;48.178;11.566;2023-06-22T01:11:00;95825.44;;;22.85;37.08
73671;BME280;61968;48.178;11.566;2023-06-22T01:13:35;95820.06;;;22.63;37.27
73671;BME280;61968;48.178;11.566;2023-06-22T01:16:08;95816.66;;;22.57;37.47
73671;BME280;61968;48.178;11.566;2023-06-22T01:18:37;95806.25;;;22.64;37.18
73671;BME280;61968;48.178;11.566;2023-06-22T01:21:11;95803.44;;;22.70;37.03
73671;BME280;61968;48.178;11.566;2023-06-22T01:23:51;95795.47;;;22.64;37.06
73671;BME280;61968;48.178;11.566;2023-06-22T01:26:24;95795.47;;;22.64;37.26
73671;BME280;61968;48.178;11.566;2023-06-22T01:28:57;95798.50;;;22.63;37.05
73671;BME280;61968;48.178;11.566;2023-06-22T01:31:27;95794.19;;;22.62;37.51
73671;BME280;61968;48.178;11.566;2023-06-22T01:33:59;95795.47;;;22.64;36.97
73671;BME280;61968;48.178;11.566;2023-06-22T01:36:27;95797.00;;;22.57;37.43
73671;BME280;61968;48.178;11.566;2023-06-22T01:38:54;95793.13;;;22.49;37.71
73671;BME280;61968;48.178;11.566;2023-06-22T01:41:25;95789.63;;;22.49;37.45
73671;BME280;61968;48.178;11.566;2023-06-22T01:43:52;95782.91;;;22.60;37.39
73671;BME280;61968;48.178;11.566;2023-06-22T01:46:21;95787.63;;;22.54;37.61
73671;BME280;61968;48.178;11.566;2023-06-22T01:48:48;95786.94;;;22.49;37.44
73671;BME280;61968;48.178;11.566;2023-06-22T01:51:16;95778.69;;;22.45;37.41
73671;BME280;61968;48.178;11.566;2023-06-22T01:53:42;95784.97;;;22.40;37.55
73671;BME280;61968;48.178;11.566;2023-06-22T01:56:09;95792.75;;;22.42;37.27
73671;BME280;61968;48.178;11.566;2023-06-22T01:58:41;95795.38;;;22.33;37.76
73671;BME280;61968;48.178;11.566;2023-06-22T02:01:12;95788.41;;;22.32;37.80
73671;BME280;61968;48.178;11.566;2023-06-22T02:03:51;95794.81;;;22.22;37.78
73671;BME280;61968;48.178;11.566;2023-06-22T02:06:24;95790.63;;;22.16;37.96
73671;BME280;61968;48.178;11.566;2023-06-22T02:08:55;95798.72;;;22.16;38.03
73671;BME280;61968;48.178;11.566;2023-06-22T02:11:22;95797.03;;;22.20;37.73
73671;BME280;61968;48.178;11.566;2023-06-22T02:13:52;95794.16;;;22.17;37.96
73671;BME280;61968;48.178;11.566;2023-06-22T02:16:20;95800.19;;;22.22;37.70
73671;BME280;61968;48.178;11.566;2023-06-22T02:18:49;95803.50;;;22.19;37.76
73671;BME280;61968;48.178;11.566;2023-06-22T02:21:17;95792.25;;;22.17;37.72
73671;BME280;61968;48.178;11.566;2023-06-22T02:23:43;95800.72;;;22.11;38.11
73671;BME280;61968;48.178;11.566;2023-06-22T02:26:10;95800.53;;;22.07;38.01
73671;BME280;61968;48.178;11.566;2023-06-22T02:28:37;95799.22;;;22.05;37.93
73671;BME280;61968;48.178;11.566;2023-06-22T02:31:03;95794.66;;;22.05;38.04
73671;BME280;61968;48.178;11.566;2023-06-22T02:33:30;95797.97;;;22.02;38.28
73671;BME280;61968;48.178;11.566;2023-06-22T02:35:58;95799.00;;;22.01;38.44
73671;BME280;61968;48.178;11.566;2023-06-22T02:38:24;95814.19;;;21.97;38.28
73671;BME280;61968;48.178;11.566;2023-06-22T02:40:51;95815.59;;;21.94;38.28
73671;BME280;61968;48.178;11.566;2023-06-22T02:43:18;95827.03;;;22.00;38.23
73671;BME280;61968;48.178;11.566;2023-06-22T02:45:44;95832.22;;;22.10;38.17
73671;BME280;61968;48.178;11.566;2023-06-22T02:48:11;95827.97;;;22.09;38.00
73671;BME280;61968;48.178;11.566;2023-06-22T02:50:37;95831.75;;;22.08;38.40
73671;BME280;61968;48.178;11.566;2023-06-22T02:53:05;95819.56;;;22.11;38.05
73671;BME280;61968;48.178;11.566;2023-06-22T02:55:32;95821.38;;;22.02;38.33
73671;BME280;61968;48.178;11.566;2023-06-22T02:57:58;95819.97;;;22.04;38.33
73671;BME280;61968;48.178;11.566;2023-06-22T03:00:25;95811.44;;;22.02;38.26
73671;BME280;61968;48.178;11.566;2023-06-22T03:02:56;95814.09;;;21.88;38.80
73671;BME280;61968;48.178;11.566;2023-06-22T03:05:22;95817.78;;;21.92;38.69
73671;BME280;61968;48.178;11.566;2023-06-22T03:07:49;95809.81;;;21.87;38.98
73671;BME280;61968;48.178;11.566;2023-06-22T03:10:17;95807.59;;;21.89;38.50
73671;BME280;61968;48.178;11.566;2023-06-22T03:12:44;95803.03;;;21.90;38.70
73671;BME280;61968;48.178;11.566;2023-06-22T03:15:11;95799.16;;;21.82;38.87
73671;BME280;61968;48.178;11.566;2023-06-22T03:17:39;95798.78;;;21.75;38.94
73671;BME280;61968;48.178;11.566;2023-06-22T03:20:07;95792.09;;;21.72;38.96
73671;BME280;61968;48.178;11.566;2023-06-22T03:22:36;95797.94;;;21.74;39.93
73671;BME280;61968;48.178;11.566;2023-06-22T03:25:03;95800.75;;;21.83;40.04
73671;BME280;61968;48.178;11.566;2023-06-22T03:27:31;95800.72;;;21.97;39.22
73671;BME280;61968;48.178;11.566;2023-06-22T03:29:57;95804.84;;;22.08;38.68
73671;BME280;61968;48.178;11.566;2023-06-22T03:32:24;95799.59;;;22.26;38.37
73671;BME280;61968;48.178;11.566;2023-06-22T03:34:53;95801.19;;;22.27;38.59
73671;BME280;61968;48.178;11.566;2023-06-22T03:37:19;95804.97;;;22.26;38.60
73671;BME280;61968;48.178;11.566;2023-06-22T03:39:46;95798.69;;;22.30;38.12
73671;BME280;61968;48.178;11.566;2023-06-22T03:42:12;95804.97;;;22.26;38.66
73671;BME280;61968;48.178;11.566;2023-06-22T03:44:40;95809.38;;;22.21;38.48
73671;BME280;61968;48.178;11.566;2023-06-22T03:47:07;95815.97;;;22.15;38.76
73671;BME280;61968;48.178;11.566;2023-06-22T03:49:34;95811.09;;;22.17;38.57
73671;BME280;61968;48.178;11.566;2023-06-22T03:52:01;95807.66;;;22.26;38.72
73671;BME280;61968;48.178;11.566;2023-06-22T03:54:28;95806.06;;;22.25;38.67
73671;BME280;61968;48.178;11.566;2023-06-22T03:56:57;95817.34;;;22.27;38.80
73671;BME280;61968;48.178;11.566;2023-06-22T03:59:23;95815.56;;;22.22;38.89
73671;BME280;61968;48.178;11.566;2023-06-22T04:01:52;95813.19;;;22.20;38.61
73671;BME280;61968;48.178;11.566;2023-06-22T04:04:18;95814.25;;;22.19;38.71
73671;BME280;61968;48.178;11.566;2023-06-22T04:06:45;95812.69;;;22.18;38.62
73671;BME280;61968;48.178;11.566;2023-06-22T04:09:11;95820.47;;;22.20;38.76
73671;BME280;61968;48.178;11.566;2023-06-22T04:11:38;95821.06;;;22.17;39.29
73671;BME280;61968;48.178;11.566;2023-06-22T04:14:04;95826.94;;;22.19;38.60
73671;BME280;61968;48.178;11.566;2023-06-22T04:16:31;95825.16;;;22.14;39.31
73671;BME280;61968;48.178;11.566;2023-06-22T04:18:59;95818.44;;;22.26;38.72
73671;BME280;61968;48.178;11.566;2023-06-22T04:21:25;95821.03;;;22.31;38.56
73671;BME280;61968;48.178;11.566;2023-06-22T04:23:52;95815.25;;;22.24;39.28
73671;BME280;61968;48.178;11.566;2023-06-22T04:26:19;95817.56;;;22.16;38.98
73671;BME280;61968;48.178;11.566;2023-06-22T04:28:46;95813.38;;;22.24;39.07
73671;BME280;61968;48.178;11.566;2023-06-22T04:31:16;95806.75;;;22.30;38.63
73671;BME280;61968;48.178;11.566;2023-06-22T04:33:43;95803.47;;;22.33;38.84
73671;BME280;61968;48.178;11.566;2023-06-22T04:36:11;95808.75;;;22.38;38.86
73671;BME280;61968;48.178;11.566;2023-06-22T04:38:38;95811.53;;;22.33;38.58
73671;BME280;61968;48.178;11.566;2023-06-22T04:41:05;95812.66;;;22.32;38.97
73671;BME280;61968;48.178;11.566;2023-06-22T04:43:33;95804.56;;;22.32;38.90
73671;BME280;61968;48.178;11.566;2023-06-22T04:45:59;95809.56;;;22.25;38.91
73671;BME280;61968;48.178;11.566;2023-06-22T04:48:29;95800.94;;;22.37;38.90
73671;BME280;61968;48.178;11.566;2023-06-22T04:50:58;95803.03;;;22.40;38.51
73671;BME280;61968;48.178;11.566;2023-06-22T04:53:31;95795.47;;;22.42;38.67
73671;BME280;61968;48.178;11.566;2023-06-22T04:55:58;95796.34;;;22.37;38.58
73671;BME280;61968;48.178;11.566;2023-06-22T04:58:24;95796.16;;;22.34;38.57
73671;BME280;61968;48.178;11.566;2023-06-22T05:00:54;95798.78;;;22.25;39.15
73671;BME280;61968;48.178;11.566;2023-06-22T05:03:22;95795.66;;;22.32;38.71
73671;BME280;61968;48.178;11.566;2023-06-22T05:05:51;95800.34;;;22.40;38.58
73671;BME280;61968;48.178;11.566;2023-06-22T05:08:17;95801.94;;;22.41;38.45
73671;BME280;61968;48.178;11.566;2023-06-22T05:10:45;95800.22;;;22.45;39.34
73671;BME280;61968;48.178;11.566;2023-06-22T05:13:12;95799.13;;;22.46;38.96
73671;BME280;61968;48.178;11.566;2023-06-22T05:15:38;95796.31;;;22.51;39.44
73671;BME280;61968;48.178;11.566;2023-06-22T05:18:05;95786.50;;;22.55;38.97
73671;BME280;61968;48.178;11.566;2023-06-22T05:20:32;95795.09;;;22.57;38.70
73671;BME280;61968;48.178;11.566;2023-06-22T05:23:01;95785.66;;;22.46;39.36
73671;BME280;61968;48.178;11.566;2023-06-22T05:25:27;95792.63;;;22.47;39.36
73671;BME280;61968;48.178;11.566;2023-06-22T05:27:56;95795.72;;;22.54;39.17
73671;BME280;61968;48.178;11.566;2023-06-22T05:30:23;95789.88;;;22.61;38.82
73671;BME280;61968;48.178;11.566;2023-06-22T05:32:50;95793.69;;;22.60;38.35
73671;BME280;61968;48.178;11.566;2023-06-22T05:35:18;95790.59;;;22.66;38.32
73671;BME280;61968;48.178;11.566;2023-06-22T05:37:44;95797.75;;;22.71;38.41
73671;BME280;61968;48.178;11.566;2023-06-22T05:40:12;95795.97;;;22.66;38.92
73671;BME280;61968;48.178;11.566;2023-06-22T05:42:38;95791.09;;;22.69;38.27
73671;BME280;61968;48.178;11.566;2023-06-22T05:45:07;95795.59;;;22.59;38.86
73671;BME280;61968;48.178;11.566;2023-06-22T05:47:33;95788.41;;;22.69;38.06
73671;BME280;61968;48.178;11.566;2023-06-22T05:50:00;95788.00;;;22.61;38.47
73671;BME280;61968;48.178;11.566;2023-06-22T05:52:31;95784.22;;;22.62;38.73
73671;BME280;61968;48.178;11.566;2023-06-22T05:54:58;95777.72;;;22.63;38.55
73671;BME280;61968;48.178;11.566;2023-06-22T05:57:24;95780.72;;;22.62;38.58
73671;BME280;61968;48.178;11.566;2023-06-22T05:59:51;95781.41;;;22.67;38.54
73671;BME280;61968;48.178;11.566;2023-06-22T06:02:20;95787.91;;;22.66;38.03
73671;BME280;61968;48.178;11.566;2023-06-22T06:04:46;95795.66;;;22.68;38.67
73671;BME280;61968;48.178;11.566;2023-06-22T06:07:13;95797.44;;;22.73;38.14
73671;BME280;61968;48.178;11.566;2023-06-22T06:09:40;95802.28;;;22.84;38.22
73671;BME280;61968;48.178;11.566;2023-06-22T06:12:07;95808.97;;;22.87;37.71
73671;BME280;61968;48.178;11.566;2023-06-22T06:14:34;95800.81;;;22.78;38.29
73671;BME280;61968;48.178;11.566;2023-06-22T06:17:00;95793.81;;;22.77;37.96
73671;BME280;61968;48.178;11.566;2023-06-22T06:19:28;95787.03;;;22.80;37.83
73671;BME280;61968;48.178;11.566;2023-06-22T06:21:55;95790.66;;;22.75;38.26
73671;BME280;61968;48.178;11.566;2023-06-22T06:24:21;95789.38;;;22.73;38.27
73671;BME280;61968;48.178;11.566;2023-06-22T06:26:48;95789.25;;;22.78;38.47
73671;BME280;61968;48.178;11.566;2023-06-22T06:29:14;95780.91;;;22.88;38.42
73671;BME280;61968;48.178;11.566;2023-06-22T06:31:42;95772.00;;;22.87;38.08
73671;BME280;61968;48.178;11.566;2023-06-22T06:34:09;95767.59;;;22.92;37.86
73671;BME280;61968;48.178;11.566;2023-06-22T06:36:37;95759.25;;;23.02;37.92
73671;BME280;61968;48.178;11.566;2023-06-22T06:39:03;95761.56;;;22.95;38.35
73671;BME280;61968;48.178;11.566;2023-06-22T06:41:30;95767.34;;;23.02;37.89
73671;BME280;61968;48.178;11.566;2023-06-22T06:43:57;95764.50;;;23.07;37.94
73671;BME280;61968;48.178;11.566;2023-06-22T06:46:23;95765.31;;;23.16;37.90
73671;BME280;61968;48.178;11.566;2023-06-22T06:48:50;95774.69;;;23.19;37.71
73671;BME280;61968;48.178;11.566;2023-06-22T06:51:16;95766.44;;;23.15;38.17
73671;BME280;61968;48.178;11.566;2023-06-22T06:53:44;95773.91;;;23.18;38.25
73671;BME280;61968;48.178;11.566;2023-06-22T06:56:10;95764.25;;;23.17;37.99
73671;BME280;61968;48.178;11.566;2023-06-22T06:58:38;95767.13;;;23.21;38.04
73671;BME280;61968;48.178;11.566;2023-06-22T07:01:05;95765.22;;;23.21;38.25
73671;BME280;61968;48.178;11.566;2023-06-22T07:03:31;95769.22;;;23.24;38.05
73671;BME280;61968;48.178;11.566;2023-06-22T07:05:58;95762.06;;;23.28;38.11
73671;BME280;61968;48.178;11.566;2023-06-22T07:08:25;95771.78;;;23.29;37.82
73671;BME280;61968;48.178;11.566;2023-06-22T07:10:53;95765.28;;;23.30;38.01
73671;BME280;61968;48.178;11.566;2023-06-22T07:13:19;95769.53;;;23.31;38.24
73671;BME280;61968;48.178;11.566;2023-06-22T07:15:46;95771.78;;;23.38;38.00
73671;BME280;61968;48.178;11.566;2023-06-22T07:18:13;95765.97;;;23.44;37.68
73671;BME280;61968;48.178;11.566;2023-06-22T07:20:39;95766.78;;;23.53;37.96
73671;BME280;61968;48.178;11.566;2023-06-22T07:23:06;95768.38;;;23.54;37.91
73671;BME280;61968;48.178;11.566;2023-06-22T07:25:33;95761.72;;;23.61;37.88
73671;BME280;61968;48.178;11.566;2023-06-22T07:28:02;95767.59;;;23.63;37.34
73671;BME280;61968;48.178;11.566;2023-06-22T07:30:28;95761.41;;;23.71;37.34
73671;BME280;61968;48.178;11.566;2023-06-22T07:32:57;95762.03;;;23.68;37.51
73671;BME280;61968;48.178;11.566;2023-06-22T07:35:28;95757.13;;;23.70;37.82
73671;BME280;61968;48.178;11.566;2023-06-22T07:37:55;95749.66;;;23.67;37.76
73671;BME280;61968;48.178;11.566;2023-06-22T07:40:22;95752.53;;;23.70;37.81
73671;BME280;61968;48.178;11.566;2023-06-22T07:42:48;95740.47;;;23.76;37.33
73671;BME280;61968;48.178;11.566;2023-06-22T07:45:18;95740.03;;;23.83;37.33
73671;BME280;61968;48.178;11.566;2023-06-22T07:47:44;95733.34;;;23.89;37.13
73671;BME280;61968;48.178;11.566;2023-06-22T07:50:11;95733.53;;;23.93;37.01
73671;BME280;61968;48.178;11.566;2023-06-22T07:52:37;95733.34;;;23.89;37.35
73671;BME280;61968;48.178;11.566;2023-06-22T07:55:04;95728.44;;;23.91;37.27
73671;BME280;61968;48.178;11.566;2023-06-22T07:57:31;95737.50;;;23.95;37.80
73671;BME280;61968;48.178;11.566;2023-06-22T08:00:03;95736.88;;;24.07;37.41
73671;BME280;61968;48.178;11.566;2023-06-22T08:02:37;95736.41;;;24.14;37.56
73671;BME280;61968;48.178;11.566;2023-06-22T08:05:05;95739.13;;;24.14;37.20
73671;BME280;61968;48.178;11.566;2023-06-22T08:07:33;95733.38;;;24.15;37.03
73671;BME280;61968;48.178;11.566;2023-06-22T08:10:02;95738.78;;;24.24;36.82
73671;BME280;61968;48.178;11.566;2023-06-22T08:12:29;95738.94;;;24.19;37.22
73671;BME280;61968;48.178;11.566;2023-06-22T08:14:56;95742.13;;;24.21;37.14
73671;BME280;61968;48.178;11.566;2023-06-22T08:17:23;95736.41;;;24.14;37.71
73671;BME280;61968;48.178;11.566;2023-06-22T08:19:53;95732.13;;;24.21;37.18
73671;BME280;61968;48.178;11.566;2023-06-22T08:22:20;95733.22;;;24.29;37.38
73671;BME280;61968;48.178;11.566;2023-06-22T08:24:47;95740.38;;;24.34;37.25
73671;BME280;61968;48.178;11.566;2023-06-22T08:27:13;95730.19;;;24.31;37.50
73671;BME280;61968;48.178;11.566;2023-06-22T08:29:41;95725.59;;;24.31;37.38
73671;BME280;61968;48.178;11.566;2023-06-22T08:32:08;95725.13;;;24.29;37.41
73671;BME280;61968;48.178;11.566;2023-06-22T08:34:35;95723.53;;;24.45;37.19
73671;BME280;61968;48.178;11.566;2023-06-22T08:37:03;95732.13;;;24.56;37.31
73671;BME280;61968;48.178;11.566;2023-06-22T08:39:31;95727.50;;;24.48;36.99
73671;BME280;61968;48.178;11.566;2023-06-22T08:41:58;95727.16;;;24.58;36.90
73671;BME280;61968;48.178;11.566;2023-06-22T08:44:25;95723.38;;;24.51;37.31
73671;BME280;61968;48.178;11.566;2023-06-22T08:46:51;95730.06;;;24.44;37.47
73671;BME280;61968;48.178;11.566;2023-06-22T08:49:18;95729.09;;;24.49;36.59
73671;BME280;61968;48.178;11.566;2023-06-22T08:51:44;95729.72;;;24.55;36.51
73671;BME280;61968;48.178;11.566;2023-06-22T08:54:14;95723.97;;;24.65;35.95
73671;BME280;61968;48.178;11.566;2023-06-22T08:56:40;95729.72;;;24.55;36.60
73671;BME280;61968;48.178;11.566;2023-06-22T08:59:09;95715.91;;;24.56;36.79
73671;BME280;61968;48.178;11.566;2023-06-22T09:01:36;95718.91;;;24.55;36.58
73671;BME280;61968;48.178;11.566;2023-06-22T09:04:02;95705.53;;;24.58;36.76
73671;BME280;61968;48.178;11.566;2023-06-22T09:06:31;95708.22;;;24.76;36.62
73671;BME280;61968;48.178;11.566;2023-06-22T09:08:57;95708.66;;;24.86;35.97
73671;BME280;61968;48.178;11.566;2023-06-22T09:11:26;95706.13;;;24.81;36.18
73671;BME280;61968;48.178;11.566;2023-06-22T09:13:53;95709.31;;;24.83;36.44
73671;BME280;61968;48.178;11.566;2023-06-22T09:16:19;95709.28;;;25.01;36.17
73671;BME280;61968;48.178;11.566;2023-06-22T09:18:47;95711.34;;;24.95;36.13
73671;BME280;61968;48.178;11.566;2023-06-22T09:21:13;95711.03;;;24.97;36.12
73671;BME280;61968;48.178;11.566;2023-06-22T09:23:39;95709.28;;;25.01;35.85
73671;BME280;61968;48.178;11.566;2023-06-22T09:26:06;95707.97;;;25.07;35.92
73671;BME280;61968;48.178;11.566;2023-06-22T09:28:34;95710.34;;;25.17;35.06
73671;BME280;61968;48.178;11.566;2023-06-22T09:31:00;95700.56;;;25.25;35.40
73671;BME280;61968;48.178;11.566;2023-06-22T09:33:27;95700.91;;;25.23;35.42
73671;BME280;61968;48.178;11.566;2023-06-22T09:35:53;95695.13;;;25.33;35.83
73671;BME280;61968;48.178;11.566;2023-06-22T09:38:21;95687.47;;;25.35;35.28
73671;BME280;61968;48.178;11.566;2023-06-22T09:40:48;95685.22;;;25.37;35.40
73671;BME280;61968;48.178;11.566;2023-06-22T09:43:14;95691.75;;;25.36;34.92
73671;BME280;61968;48.178;11.566;2023-06-22T09:45:42;95690.97;;;25.36;35.21
73671;BME280;61968;48.178;11.566;2023-06-22T09:48:09;95697.31;;;25.40;35.04
73671;BME280;61968;48.178;11.566;2023-06-22T09:50:36;95698.56;;;25.43;35.21
73671;BME280;61968;48.178;11.566;2023-06-22T09:53:02;95686.53;;;25.61;34.87
73671;BME280;61968;48.178;11.566;2023-06-22T09:55:29;95683.19;;;25.64;35.07
73671;BME280;61968;48.178;11.566;2023-06-22T09:57:55;95684.78;;;25.65;34.96
73671;BME280;61968;48.178;11.566;2023-06-22T10:00:22;95678.50;;;25.73;34.97
73671;BME280;61968;48.178;11.566;2023-06-22T10:02:50;95678.50;;;25.73;34.84
73671;BME280;61968;48.178;11.566;2023-06-22T10:05:16;95681.00;;;25.78;34.41
73671;BME280;61968;48.178;11.566;2023-06-22T10:07:44;95680.16;;;25.87;34.61
73671;BME280;61968;48.178;11.566;2023-06-22T10:10:11;95674.09;;;25.90;34.80
73671;BME280;61968;48.178;11.566;2023-06-22T10:12:41;95668.28;;;26.00;34.31
73671;BME280;61968;48.178;11.566;2023-06-22T10:15:08;95662.72;;;25.96;34.37
73671;BME280;61968;48.178;11.566;2023-06-22T10:17:35;95672.75;;;25.96;34.53
73671;BME280;61968;48.178;11.566;2023-06-22T10:20:04;95664.25;;;26.06;35.15
73671;BME280;61968;48.178;11.566;2023-06-22T10:22:36;95666.66;;;26.08;34.78
73671;BME280;61968;48.178;11.566;2023-06-22T10:25:03;95661.00;;;26.13;34.76
73671;BME280;61968;48.178;11.566;2023-06-22T10:27:29;95668.13;;;26.17;34.64
73671;BME280;61968;48.178;11.566;2023-06-22T10:29:56;95670.78;;;26.26;34.59
73671;BME280;61968;48.178;11.566;2023-06-22T10:32:23;95670.91;;;26.29;34.25
73671;BME280;61968;48.178;11.566;2023-06-22T10:34:49;95660.72;;;26.26;34.58
73671;BME280;61968;48.178;11.566;2023-06-22T10:37:17;95662.56;;;26.35;34.41
73671;BME280;61968;48.178;11.566;2023-06-22T10:39:44;95661.22;;;26.41;34.28
73671;BME280;61968;48.178;11.566;2023-06-22T10:42:11;95654.63;;;26.50;34.43
73671;BME280;61968;48.178;11.566;2023-06-22T10:44:38;95642.75;;;26.55;34.67
73671;BME280;61968;48.178;11.566;2023-06-22T10:47:06;95642.31;;;26.53;34.62
73671;BME280;61968;48.178;11.566;2023-06-22T10:49:33;95630.06;;;26.47;34.50
73671;BME280;61968;48.178;11.566;2023-06-22T10:51:59;95640.03;;;26.55;34.69
73671;BME280;61968;48.178;11.566;2023-06-22T10:54:27;95636.53;;;26.55;34.58
73671;BME280;61968;48.178;11.566;2023-06-22T10:56:54;95631.34;;;26.62;34.25
73671;BME280;61968;48.178;11.566;2023-06-22T10:59:20;95632.72;;;26.68;33.92
73671;BME280;61968;48.178;11.566;2023-06-22T11:01:49;95630.56;;;26.73;34.74
73671;BME280;61968;48.178;11.566;2023-06-22T11:04:15;95624.16;;;26.78;33.70
73671;BME280;61968;48.178;11.566;2023-06-22T11:06:42;95630.03;;;26.80;34.07
73671;BME280;61968;48.178;11.566;2023-06-22T11:09:09;95635.47;;;26.80;33.54
73671;BME280;61968;48.178;11.566;2023-06-22T11:11:37;95634.88;;;26.74;33.78
73671;BME280;61968;48.178;11.566;2023-06-22T11:14:03;95637.81;;;26.69;33.41
73671;BME280;61968;48.178;11.566;2023-06-22T11:16:29;95634.66;;;26.80;33.55
73671;BME280;61968;48.178;11.566;2023-06-22T11:18:56;95632.06;;;26.83;33.92
73671;BME280;61968;48.178;11.566;2023-06-22T11:21:23;95624.81;;;26.87;33.71
73671;BME280;61968;48.178;11.566;2023-06-22T11:23:49;95622.91;;;26.88;34.11
73671;BME280;61968;48.178;11.566;2023-06-22T11:26:19;95628.00;;;26.89;33.89
73671;BME280;61968;48.178;11.566;2023-06-22T11:28:47;95623.69;;;27.01;33.90
73671;BME280;61968;48.178;11.566;2023-06-22T11:31:14;95620.00;;;27.05;33.49
73671;BME280;61968;48.178;11.566;2023-06-22T11:33:41;95627.91;;;27.10;33.95
73671;BME280;61968;48.178;11.566;2023-06-22T11:36:07;95622.34;;;27.19;33.82
73671;BME280;61968;48.178;11.566;2023-06-22T11:38:34;95618.63;;;27.24;33.37
73671;BME280;61968;48.178;11.566;2023-06-22T11:41:02;95605.94;;;27.28;32.92
73671;BME280;61968;48.178;11.566;2023-06-22T11:43:28;95603.91;;;27.37;32.85
73671;BME280;61968;48.178;11.566;2023-06-22T11:45:56;95605.69;;;27.45;33.06
73671;BME280;61968;48.178;11.566;2023-06-22T11:48:23;95591.09;;;27.50;32.59
73671;BME280;61968;48.178;11.566;2023-06-22T11:50:50;95588.38;;;27.62;32.77
73671;BME280;61968;48.178;11.566;2023-06-22T11:53:17;95593.81;;;27.62;32.27
73671;BME280;61968;48.178;11.566;2023-06-22T11:55:43;95587.78;;;27.69;33.34
73671;BME280;61968;48.178;11.566;2023-06-22T11:58:10;95583.78;;;27.78;32.76
73671;BME280;61968;48.178;11.566;2023-06-22T12:00:37;95591.34;;;27.85;32.30
73671;BME280;61968;48.178;11.566;2023-06-22T12:03:05;95600.34;;;28.01;32.83
73671;BME280;61968;48.178;11.566;2023-06-22T12:05:31;95593.53;;;28.07;31.68
73671;BME280;61968;48.178;11.566;2023-06-22T12:07:58;95584.25;;;28.08;31.78
73671;BME280;61968;48.178;11.566;2023-06-22T12:10:25;95580.91;;;28.15;32.00
73671;BME280;61968;48.178;11.566;2023-06-22T12:12:53;95582.16;;;28.18;31.89
73671;BME280;61968;48.178;11.566;2023-06-22T12:15:20;95566.84;;;28.25;32.03
73671;BME280;61968;48.178;11.566;2023-06-22T12:17:47;95557.63;;;28.30;32.00
73671;BME280;61968;48.178;11.566;2023-06-22T12:20:15;95560.78;;;28.32;31.87
73671;BME280;61968;48.178;11.566;2023-06-22T12:22:42;95556.75;;;28.42;32.02
73671;BME280;61968;48.178;11.566;2023-06-22T12:25:09;95556.59;;;28.50;31.64
73671;BME280;61968;48.178;11.566;2023-06-22T12:27:36;95554.75;;;28.54;31.55
73671;BME280;61968;48.178;11.566;2023-06-22T12:30:03;95547.28;;;28.51;30.61
73671;BME280;61968;48.178;11.566;2023-06-22T12:32:29;95550.56;;;28.57;30.99
73671;BME280;61968;48.178;11.566;2023-06-22T12:34:57;95540.91;;;28.60;32.14
73671;BME280;61968;48.178;11.566;2023-06-22T12:37:25;95538.78;;;28.53;31.73
73671;BME280;61968;48.178;11.566;2023-06-22T12:39:51;95545.00;;;28.53;32.02
73671;BME280;61968;48.178;11.566;2023-06-22T12:42:18;95554.84;;;28.58;31.78
73671;BME280;61968;48.178;11.566;2023-06-22T12:44:44;95537.13;;;28.64;32.01
73671;BME280;61968;48.178;11.566;2023-06-22T12:47:11;95551.16;;;28.66;32.31
73671;BME280;61968;48.178;11.566;2023-06-22T12:49:38;95536.16;;;28.57;31.62
73671;BME280;61968;48.178;11.566;2023-06-22T12:52:09;95538.19;;;28.60;31.70